Time;durP1;ratioP1;P1;durP2;ratioP2;P2;SDS_P1;SDS_P2;PMS_P1;PMS_P2;Temp;Humidity;BMP_temperature;BMP_pressure;BME280_temperature;BME280_humidity;BME280_pressure;Samples;Min_cycle;Max_cycle;Signal;HPM_P1;HPM_P2
2023/09/11 00:02:16;;;;;;;;;21.50;21.25;;;;;28.75;47.32;100999.25;5038646;28;46092;-37
2023/09/11 00:04:42;;;;;;;;;22.50;19.50;;;;;28.71;47.50;100995.38;5038572;28;45510;-33
2023/09/11 00:07:07;;;;;;;;;23.50;22.00;;;;;28.68;48.07;100993.16;5037432;28;45743;-37
2023/09/11 00:09:33;;;;;;;;;19.50;18.75;;;;;28.67;47.65;100992.34;5038768;28;45396;-37
2023/09/11 00:11:58;;;;;;;;;19.50;17.75;;;;;28.65;47.56;100989.03;5038445;28;45976;-34
2023/09/11 00:14:23;;;;;;;;;19.75;19.75;;;;;28.65;48.26;100993.69;5038678;28;45346;-37
2023/09/11 00:16:49;;;;;;;;;21.00;18.50;;;;;28.63;47.55;100993.94;5038634;28;45212;-40
2023/09/11 00:19:14;;;;;;;;;20.00;19.25;;;;;28.60;47.98;100989.81;5038851;28;45439;-37
2023/09/11 00:21:39;;;;;;;;;25.25;24.00;;;;;28.58;47.94;100986.53;5038417;28;46175;-43
2023/09/11 00:24:05;;;;;;;;;20.50;19.25;;;;;28.57;48.16;100992.28;5036725;28;51739;-36
2023/09/11 00:26:31;;;;;;;;;22.00;19.00;;;;;28.53;48.33;100989.22;5038485;28;45400;-37
2023/09/11 00:28:56;;;;;;;;;21.75;19.00;;;;;28.50;48.61;100986.19;5038664;28;45450;-37
2023/09/11 00:31:22;;;;;;;;;18.25;18.00;;;;;28.48;48.68;100991.06;5038335;28;45883;-38
2023/09/11 00:33:47;;;;;;;;;21.75;20.25;;;;;28.44;48.52;100992.66;5038047;28;45770;-37
2023/09/11 00:36:12;;;;;;;;;19.00;18.00;;;;;28.33;49.04;100978.06;5038497;28;45446;-41
2023/09/11 00:38:38;;;;;;;;;20.50;20.50;;;;;28.34;48.80;100983.25;5038514;28;45522;-42
2023/09/11 00:41:03;;;;;;;;;24.50;22.75;;;;;28.30;48.06;100997.72;5037174;28;49468;-41
2023/09/11 00:43:28;;;;;;;;;20.50;17.75;;;;;28.24;48.09;100982.34;5037942;28;49015;-38
2023/09/11 00:45:55;;;;;;;;;21.00;18.25;;;;;28.19;48.29;100983.13;5038016;28;45476;-44
2023/09/11 00:48:22;;;;;;;;;65.33;49.33;;;;;28.12;48.32;100985.22;5038360;28;45271;-39
2023/09/11 00:50:48;;;;;;;;;99.67;78.33;;;;;28.05;48.58;100981.88;5037746;28;47450;-37
2023/09/11 00:53:14;;;;;;;;;26.20;22.20;;;;;28.01;48.67;100983.47;5038033;28;45313;-41
2023/09/11 00:55:43;;;;;;;;;16.20;15.00;;;;;27.94;48.93;100970.00;5036916;28;45218;-38
2023/09/11 00:58:08;;;;;;;;;22.80;19.60;;;;;27.97;48.91;100982.31;5038216;28;45491;-37
2023/09/11 01:00:34;;;;;;;;;20.75;19.50;;;;;27.92;49.12;100980.34;5037542;28;45332;-39
2023/09/11 01:02:59;;;;;;;;;18.75;16.75;;;;;27.89;48.81;100978.13;5037714;28;45368;-37
2023/09/11 01:05:27;;;;;;;;;21.50;20.50;;;;;27.82;49.08;100972.06;5037773;28;45400;-37
2023/09/11 01:07:53;;;;;;;;;18.40;15.80;;;;;27.80;49.08;100963.25;5037661;28;45207;-38
2023/09/11 01:10:18;;;;;;;;;22.25;22.25;;;;;27.78;49.43;100970.91;5037393;28;47286;-41
2023/09/11 01:12:44;;;;;;;;;20.50;18.25;;;;;27.73;48.63;100963.47;5037607;28;45367;-38
2023/09/11 01:15:10;;;;;;;;;24.75;20.25;;;;;27.68;48.89;100962.53;5037463;28;45410;-38
2023/09/11 01:17:46;;;;;;;;;21.20;17.00;;;;;27.66;48.58;100968.28;5037809;28;45698;-36
2023/09/11 01:20:59;;;;;;;;;18.80;17.60;;;;;27.61;48.75;100969.03;5037365;28;46273;-37
2023/09/11 01:23:47;;;;;;;;;18.40;17.40;;;;;27.59;48.66;100964.91;4995328;28;45379;-38
2023/09/11 01:26:31;;;;;;;;;20.60;18.40;;;;;27.54;48.84;100965.66;4995507;28;45540;-39
2023/09/11 01:29:09;;;;;;;;;19.40;16.80;;;;;27.51;48.52;100963.44;4995734;28;45410;-39
2023/09/11 01:31:36;;;;;;;;;15.20;14.20;;;;;27.49;48.99;100967.50;4995159;28;46759;-38
2023/09/11 01:34:04;;;;;;;;;19.60;19.40;;;;;27.46;48.73;100959.81;4993862;28;45459;-39
2023/09/11 01:36:29;;;;;;;;;21.80;19.40;;;;;27.41;49.05;100959.75;4995363;28;45390;-38
2023/09/11 01:38:56;;;;;;;;;19.75;18.50;;;;;27.40;49.52;100971.78;4995235;28;45775;-38
2023/09/11 01:41:30;;;;;;;;;19.60;18.40;;;;;27.40;48.90;100977.22;4995071;28;45469;-39
2023/09/11 01:43:58;;;;;;;;;17.40;17.40;;;;;27.33;49.10;100969.22;4994130;28;45468;-37
2023/09/11 01:46:25;;;;;;;;;11.40;11.40;;;;;27.33;49.27;100982.88;4994975;28;45554;-36
2023/09/11 01:48:51;;;;;;;;;21.20;19.20;;;;;27.29;50.08;100978.97;4995269;28;45877;-38
2023/09/11 01:51:18;;;;;;;;;18.60;17.20;;;;;27.32;49.57;100982.03;4994656;28;47177;-36
2023/09/11 01:53:44;;;;;;;;;21.60;19.40;;;;;27.18;49.40;100958.91;4994915;28;45435;-41
2023/09/11 01:56:10;;;;;;;;;23.25;19.25;;;;;27.23;50.17;100982.75;4994930;28;45356;-38
2023/09/11 01:58:35;;;;;;;;;20.20;19.00;;;;;27.26;49.24;100979.47;4995173;28;45484;-40
2023/09/11 02:01:01;;;;;;;;;22.50;20.50;;;;;27.22;50.09;100987.38;5036421;28;46430;-37
2023/09/11 02:03:27;;;;;;;;;21.75;19.50;;;;;27.20;50.03;100980.50;5036645;28;45483;-38
2023/09/11 02:05:54;;;;;;;;;17.40;17.20;;;;;27.14;49.78;100978.75;5036666;28;45358;-38
2023/09/11 02:08:19;;;;;;;;;23.40;21.00;;;;;27.19;50.28;100989.78;5036581;28;45401;-38
2023/09/11 02:10:46;;;;;;;;;17.75;17.75;;;;;27.19;49.50;100981.59;5036642;28;46570;-38
2023/09/11 02:13:11;;;;;;;;;20.20;17.60;;;;;27.16;49.59;100982.09;5036630;28;45251;-38
2023/09/11 02:15:37;;;;;;;;;21.50;19.25;;;;;27.12;50.19;100984.47;5036336;28;48716;-36
2023/09/11 02:18:02;;;;;;;;;25.25;18.50;;;;;27.06;49.36;100977.28;5036909;28;45385;-36
2023/09/11 02:20:27;;;;;;;;;17.25;17.25;;;;;27.04;48.82;100973.94;5036192;28;46098;-39
2023/09/11 02:22:53;;;;;;;;;21.00;17.25;;;;;26.97;49.23;100978.75;5035166;28;45378;-40
2023/09/11 02:25:18;;;;;;;;;19.25;18.75;;;;;26.91;49.71;100975.13;5036255;28;45405;-37
2023/09/11 02:27:43;;;;;;;;;18.00;12.00;;;;;26.89;49.67;100971.84;5036982;28;45439;-37
2023/09/11 02:30:09;;;;;;;;;26.75;19.25;;;;;26.84;50.23;100979.91;5036012;28;46936;-38
2023/09/11 02:32:34;;;;;;;;;19.75;19.00;;;;;26.80;49.78;100971.44;5036235;28;45222;-39
2023/09/11 02:34:59;;;;;;;;;20.50;16.00;;;;;26.78;50.37;100980.94;5035998;28;45401;-38
2023/09/11 02:37:25;;;;;;;;;17.25;17.25;;;;;26.72;49.93;100979.22;5036565;28;45255;-36
2023/09/11 02:39:50;;;;;;;;;16.75;15.75;;;;;26.72;49.78;100981.94;5034740;28;46361;-38
2023/09/11 02:42:15;;;;;;;;;19.00;19.00;;;;;26.60;49.85;100969.19;5036083;28;45356;-45
2023/09/11 02:44:42;;;;;;;;;19.75;19.75;;;;;26.63;50.31;100978.75;5035005;28;45395;-39
2023/09/11 02:47:07;;;;;;;;;19.20;16.40;;;;;26.59;50.52;100978.44;5036269;28;45249;-38
2023/09/11 02:49:32;;;;;;;;;19.25;17.50;;;;;26.57;50.39;100983.31;5035722;28;50046;-38
2023/09/11 02:51:58;;;;;;;;;23.25;18.25;;;;;26.56;49.93;100976.22;5035516;28;53664;-37
2023/09/11 02:54:23;;;;;;;;;17.50;17.25;;;;;26.54;49.73;100970.16;5035916;28;45436;-37
2023/09/11 02:56:48;;;;;;;;;21.50;17.50;;;;;26.51;49.90;100970.69;5036175;28;45381;-38
2023/09/11 02:59:14;;;;;;;;;16.50;16.50;;;;;26.47;49.30;100960.50;5035995;28;45389;-41
2023/09/11 03:01:39;;;;;;;;;17.25;16.00;;;;;26.49;50.29;100974.72;5035119;28;45400;-39
2023/09/11 03:04:04;;;;;;;;;17.75;17.50;;;;;26.48;49.88;100968.44;5034188;28;50803;-38
2023/09/11 03:06:30;;;;;;;;;16.75;16.75;;;;;26.46;51.56;100976.03;5036281;28;45365;-37
2023/09/11 03:08:56;;;;;;;;;17.00;16.60;;;;;26.42;50.00;100963.94;5035729;28;46073;-38
2023/09/11 03:11:21;;;;;;;;;16.25;16.25;;;;;26.41;50.51;100967.72;5035472;28;45422;-38
2023/09/11 03:13:48;;;;;;;;;18.00;17.75;;;;;26.40;49.88;100959.81;5035873;28;45365;-38
2023/09/11 03:16:15;;;;;;;;;18.40;15.40;;;;;26.37;49.65;100952.91;5035927;28;45341;-37
2023/09/11 03:18:41;;;;;;;;;18.80;17.40;;;;;26.25;49.44;100927.63;5036502;28;45457;-37
2023/09/11 03:21:07;;;;;;;;;18.75;17.00;;;;;26.26;50.15;100929.28;5039284;28;45330;-39
2023/09/11 03:23:33;;;;;;;;;19.40;16.60;;;;;26.30;51.10;100939.47;5039412;28;45336;-38
2023/09/11 03:25:58;;;;;;;;;18.75;16.50;;;;;26.29;50.49;100936.97;5038460;28;45556;-37
2023/09/11 03:28:27;;;;;;;;;15.00;11.50;;;;;26.27;50.14;100926.31;5038906;28;49048;-38
2023/09/11 03:30:53;;;;;;;;;15.20;14.80;;;;;26.19;50.54;100923.16;5039098;28;45181;-37
2023/09/11 03:33:18;;;;;;;;;17.50;16.00;;;;;26.21;50.28;100929.19;5039171;28;45333;-41
2023/09/11 03:35:47;;;;;;;;;19.50;15.75;;;;;26.21;50.70;100926.44;5039295;28;45335;-38
2023/09/11 03:38:14;;;;;;;;;19.20;17.60;;;;;26.21;50.62;100926.44;5038897;28;47128;-36
2023/09/11 03:40:41;;;;;;;;;17.40;17.00;;;;;26.20;50.72;100936.53;5038831;28;45334;-38
2023/09/11 03:43:06;;;;;;;;;16.40;15.80;;;;;26.13;50.80;100914.06;5038977;28;45444;-41
2023/09/11 03:45:32;;;;;;;;;16.50;16.50;;;;;26.18;50.50;100925.06;5039108;28;45465;-44
2023/09/11 03:47:57;;;;;;;;;18.00;15.25;;;;;26.15;50.97;100911.91;5038035;28;45273;-38
2023/09/11 03:50:22;;;;;;;;;16.00;16.00;;;;;26.13;50.13;100904.00;5038514;28;45368;-44
2023/09/11 03:52:48;;;;;;;;;16.50;15.25;;;;;26.10;50.17;100909.09;5038362;28;45387;-39
2023/09/11 03:55:13;;;;;;;;;20.00;17.50;;;;;26.09;50.16;100908.28;5038917;28;45495;-42
2023/09/11 03:57:39;;;;;;;;;17.50;16.25;;;;;26.04;50.90;100901.88;5038843;28;45309;-41
2023/09/11 04:00:08;;;;;;;;;14.60;13.40;;;;;26.06;49.92;100900.59;5038442;28;45431;-37
2023/09/11 04:02:34;;;;;;;;;16.80;14.80;;;;;25.96;49.93;100886.78;5038491;28;45505;-39
2023/09/11 04:04:59;;;;;;;;;15.75;15.00;;;;;26.03;49.43;100906.53;5038654;28;45371;-38
2023/09/11 04:07:25;;;;;;;;;15.50;12.00;;;;;26.03;49.27;100914.69;5038273;28;52824;-35
2023/09/11 04:09:50;;;;;;;;;14.50;14.00;;;;;25.99;49.22;100901.81;5037406;28;45408;-38
2023/09/11 04:12:16;;;;;;;;;18.00;15.50;;;;;26.00;49.40;100915.22;5038632;28;45251;-37
2023/09/11 04:14:42;;;;;;;;;15.00;14.60;;;;;25.97;49.54;100912.97;5038767;28;45484;-38
2023/09/11 04:17:10;;;;;;;;;16.00;11.20;;;;;25.85;48.88;100901.28;5038581;28;47097;-38
2023/09/11 04:19:36;;;;;;;;;14.80;11.60;;;;;25.90;49.45;100904.09;5038632;28;45399;-36
2023/09/11 04:22:02;;;;;;;;;13.20;11.20;;;;;25.87;49.35;100899.13;5038602;28;45442;-35
2023/09/11 04:24:28;;;;;;;;;13.80;12.00;;;;;25.83;48.84;100901.53;5039628;28;45347;-45
2023/09/11 04:26:53;;;;;;;;;18.00;15.00;;;;;25.77;49.31;100890.78;5038053;28;45482;-38
2023/09/11 04:29:20;;;;;;;;;13.25;12.00;;;;;25.78;49.44;100898.69;5037946;28;45391;-38
2023/09/11 04:31:46;;;;;;;;;15.20;14.20;;;;;25.75;49.28;100888.28;5037053;28;45390;-39
2023/09/11 04:34:11;;;;;;;;;15.00;14.25;;;;;25.75;49.50;100890.19;5038141;28;45239;-36
2023/09/11 04:36:37;;;;;;;;;16.00;13.25;;;;;25.74;49.64;100883.06;5037401;28;51914;-36
2023/09/11 04:39:04;;;;;;;;;15.25;12.75;;;;;25.72;49.88;100880.59;5037735;28;45308;-36
2023/09/11 04:41:29;;;;;;;;;14.40;13.80;;;;;25.66;49.43;100889.72;5037898;28;45412;-36
2023/09/11 04:43:55;;;;;;;;;17.25;12.75;;;;;25.65;49.78;100888.06;5038581;28;45326;-37
2023/09/11 04:46:20;;;;;;;;;17.00;15.50;;;;;25.62;50.49;100889.41;5037489;28;46812;-39
2023/09/11 04:48:45;;;;;;;;;14.25;12.25;;;;;25.63;50.35;100898.38;5038011;28;45364;-38
2023/09/11 04:51:11;;;;;;;;;14.00;14.00;;;;;25.63;50.11;100898.38;5038210;28;45656;-43
2023/09/11 04:53:36;;;;;;;;;16.00;13.50;;;;;25.63;49.88;100892.94;5038068;28;45410;-39
2023/09/11 04:56:02;;;;;;;;;14.00;12.25;;;;;25.60;50.90;100880.63;5037809;28;45321;-38
2023/09/11 04:58:28;;;;;;;;;14.75;13.50;;;;;25.61;49.54;100895.88;5037666;28;45418;-37
2023/09/11 05:00:53;;;;;;;;;14.75;12.25;;;;;25.60;49.52;100894.25;5037958;28;45330;-37
2023/09/11 05:03:19;;;;;;;;;17.75;16.00;;;;;25.56;50.64;100892.25;5037311;28;45433;-40
2023/09/11 05:05:44;;;;;;;;;14.25;11.75;;;;;25.43;50.13;100868.84;5036826;28;45438;-42
2023/09/11 05:08:09;;;;;;;;;16.00;14.75;;;;;25.52;50.56;100885.63;5036485;28;45411;-41
2023/09/11 05:10:40;;;;;;;;;14.00;13.00;;;;;25.48;50.73;100895.34;5037419;28;45795;-38
2023/09/11 05:13:05;;;;;;;;;15.60;13.00;;;;;25.42;51.23;100883.53;5037921;28;45447;-40
2023/09/11 05:15:31;;;;;;;;;15.25;14.25;;;;;25.44;51.21;100888.72;5036286;28;46325;-36
2023/09/11 05:17:56;;;;;;;;;15.75;13.00;;;;;25.44;51.05;100886.00;5037223;28;49740;-42
2023/09/11 05:20:21;;;;;;;;;16.25;13.00;;;;;25.46;50.95;100892.06;5037426;28;45366;-39
2023/09/11 05:22:47;;;;;;;;;17.50;16.00;;;;;25.45;51.59;100890.38;5037830;28;45381;-38
2023/09/11 05:25:12;;;;;;;;;16.50;15.25;;;;;25.49;51.11;100903.28;5036353;28;52577;-37
2023/09/11 05:27:37;;;;;;;;;23.75;20.00;;;;;25.50;51.77;100899.50;5037190;28;45429;-37
2023/09/11 05:30:03;;;;;;;;;33.00;25.50;;;;;25.55;51.14;100898.78;5037462;28;45684;-36
2023/09/11 05:32:28;;;;;;;;;18.50;18.50;;;;;25.61;50.68;100900.50;5037631;28;45802;-38
2023/09/11 05:34:54;;;;;;;;;18.50;18.00;;;;;25.68;51.05;100901.22;5037062;28;47115;-42
2023/09/11 05:37:19;;;;;;;;;16.50;15.75;;;;;25.74;50.12;100885.78;5037187;28;45399;-37
2023/09/11 05:39:46;;;;;;;;;15.00;14.00;;;;;25.78;49.90;100906.06;5037588;28;45397;-39
2023/09/11 05:42:11;;;;;;;;;14.80;13.40;;;;;25.81;49.74;100906.41;5036433;28;45433;-37
2023/09/11 05:44:36;;;;;;;;;17.25;15.50;;;;;25.83;49.85;100903.41;5036838;28;46012;-37
2023/09/11 05:47:03;;;;;;;;;13.50;12.00;;;;;25.91;49.50;100894.03;5037074;28;45340;-38
2023/09/11 05:49:28;;;;;;;;;18.60;15.60;;;;;25.95;49.73;100901.47;5036212;28;45198;-38
2023/09/11 05:51:55;;;;;;;;;14.50;12.50;;;;;25.99;49.43;100896.34;5037272;28;45296;-40
2023/09/11 05:54:20;;;;;;;;;17.40;16.00;;;;;26.05;49.41;100898.13;5036503;28;45366;-40
2023/09/11 05:56:45;;;;;;;;;15.50;14.50;;;;;26.06;49.64;100894.31;5036994;28;45459;-50
2023/09/11 05:59:11;;;;;;;;;16.25;11.75;;;;;26.05;49.58;100893.47;5036982;28;45324;-48
2023/09/11 06:01:36;;;;;;;;;16.50;13.25;;;;;26.08;49.64;100900.31;5037116;28;45592;-40
2023/09/11 06:04:02;;;;;;;;;12.00;12.00;;;;;26.11;49.37;100905.28;5036580;28;46131;-37
2023/09/11 06:06:27;;;;;;;;;20.00;14.25;;;;;26.14;48.77;100910.28;5036694;28;45714;-51
2023/09/11 06:08:54;;;;;;;;;16.50;14.25;;;;;26.16;48.98;100916.28;5037015;28;45308;-37
2023/09/11 06:11:20;;;;;;;;;15.60;13.80;;;;;26.16;48.50;100912.72;5036858;28;45458;-40
2023/09/11 06:13:45;;;;;;;;;14.75;14.00;;;;;26.11;48.68;100914.31;5036848;28;47052;-38
2023/09/11 06:16:12;;;;;;;;;17.75;12.25;;;;;26.13;48.69;100922.25;5036643;28;45323;-38
2023/09/11 06:18:37;;;;;;;;;19.60;16.00;;;;;26.07;48.62;100915.03;5035790;28;45165;-40
2023/09/11 06:21:02;;;;;;;;;43.25;35.00;;;;;26.03;48.97;100913.88;5037012;28;45248;-40
2023/09/11 06:23:28;;;;;;;;;16.00;15.00;;;;;26.02;48.81;100912.22;5036404;28;45361;-38
2023/09/11 06:25:53;;;;;;;;;17.75;15.00;;;;;26.04;48.49;100912.78;5036369;28;45307;-39
2023/09/11 06:28:18;;;;;;;;;16.50;13.50;;;;;26.10;48.57;100920.00;5035161;28;45205;-39
2023/09/11 06:30:44;;;;;;;;;20.50;13.50;;;;;26.10;48.19;100918.09;5035546;28;45378;-40
2023/09/11 06:33:09;;;;;;;;;16.00;14.50;;;;;26.17;48.72;100919.84;5036407;28;45239;-39
2023/09/11 06:35:34;;;;;;;;;18.00;15.25;;;;;26.21;48.45;100927.31;5036141;28;45378;-40
2023/09/11 06:38:00;;;;;;;;;15.75;13.25;;;;;26.28;48.38;100919.78;5036560;28;45315;-38
2023/09/11 06:40:25;;;;;;;;;15.50;14.75;;;;;26.32;47.87;100917.38;5036595;28;45315;-40
2023/09/11 06:42:50;;;;;;;;;3.00;3.00;;;;;26.30;48.22;100925.00;5036414;28;45889;-40
2023/09/11 06:45:16;;;;;;;;;18.25;14.25;;;;;26.24;48.32;100924.06;5036278;28;45328;-40
2023/09/11 06:47:42;;;;;;;;;11.00;9.50;;;;;26.26;48.55;100923.84;5036461;28;45329;-39
2023/09/11 06:50:07;;;;;;;;;14.00;13.75;;;;;26.26;48.76;100915.66;5036462;28;45571;-39
2023/09/11 06:52:38;;;;;;;;;14.25;14.00;;;;;26.28;48.47;100924.41;5035508;28;46196;-38
2023/09/11 06:55:05;;;;;;;;;16.80;15.00;;;;;26.29;48.59;100909.69;5035565;28;45413;-39
2023/09/11 06:57:30;;;;;;;;;20.40;17.40;;;;;26.28;48.76;100910.78;5036003;28;45214;-40
2023/09/11 06:59:56;;;;;;;;;16.25;14.50;;;;;26.32;48.44;100912.75;5036420;28;45320;-38
2023/09/11 07:02:21;;;;;;;;;15.25;10.50;;;;;26.35;47.92;100906.00;5034634;28;46195;-39
2023/09/11 07:04:47;;;;;;;;;14.75;14.75;;;;;26.42;48.31;100917.56;5036193;28;45948;-38
2023/09/11 07:07:12;;;;;;;;;15.00;15.00;;;;;26.51;47.65;100918.84;5036384;28;45327;-46
2023/09/11 07:09:37;;;;;;;;;17.75;15.25;;;;;26.62;47.62;100919.81;5036826;28;45437;-39
2023/09/11 07:12:03;;;;;;;;;20.75;14.75;;;;;26.72;47.26;100919.16;5035734;28;46209;-39
2023/09/11 07:14:28;;;;;;;;;16.25;14.25;;;;;26.92;46.95;100924.09;5035828;28;45412;-39
2023/09/11 07:16:55;;;;;;;;;12.50;11.50;;;;;26.96;46.51;100920.59;5035948;28;45523;-39
2023/09/11 07:19:22;;;;;;;;;17.60;12.60;;;;;27.18;46.46;100928.03;5035950;28;45373;-38
2023/09/11 07:21:48;;;;;;;;;16.00;14.00;;;;;27.23;46.40;100923.47;5035961;28;45438;-37
2023/09/11 07:24:13;;;;;;;;;15.25;12.25;;;;;27.50;45.33;100923.53;5035700;28;45477;-44
2023/09/11 07:26:38;;;;;;;;;12.25;11.25;;;;;28.31;44.02;100920.03;5036072;28;45298;-39
2023/09/11 07:29:04;;;;;;;;;14.00;13.50;;;;;29.07;42.38;100922.53;5036226;28;45268;-37
2023/09/11 07:31:31;;;;;;;;;11.75;11.00;;;;;29.85;41.27;100908.91;5035880;28;46296;-39
2023/09/11 07:33:56;;;;;;;;;15.20;13.60;;;;;30.57;39.89;100905.13;5035866;28;45278;-38
2023/09/11 07:36:22;;;;;;;;;13.75;9.75;;;;;31.28;38.58;100895.06;5035404;28;45336;-39
2023/09/11 07:38:48;;;;;;;;;11.60;10.40;;;;;32.08;37.10;100914.22;5036157;28;45840;-38
2023/09/11 07:41:15;;;;;;;;;11.50;10.00;;;;;32.37;37.18;100913.44;5034493;28;46300;-40
2023/09/11 07:43:42;;;;;;;;;11.00;11.00;;;;;32.13;37.08;100921.59;5035723;28;45287;-39
2023/09/11 07:46:08;;;;;;;;;18.00;12.20;;;;;32.16;37.51;100915.53;5035736;28;45393;-40
2023/09/11 07:48:35;;;;;;;;;16.00;12.50;;;;;32.04;37.98;100932.41;5035933;28;45339;-40
2023/09/11 07:51:00;;;;;;;;;14.60;13.80;;;;;31.79;37.70;100914.09;5035532;28;47123;-39
2023/09/11 07:53:26;;;;;;;;;14.00;13.00;;;;;31.83;37.75;100930.84;5035577;28;45416;-39
2023/09/11 07:55:51;;;;;;;;;17.75;13.00;;;;;31.85;37.72;100926.72;5035775;28;45489;-39
2023/09/11 07:58:16;;;;;;;;;16.75;9.75;;;;;31.74;37.87;100934.19;5035745;28;45382;-39
2023/09/11 08:00:42;;;;;;;;;13.00;9.25;;;;;31.74;37.87;100938.88;5035353;28;46330;-39
2023/09/11 08:03:07;;;;;;;;;15.25;13.00;;;;;31.67;38.00;100941.09;5035277;28;45410;-39
2023/09/11 08:05:33;;;;;;;;;27.50;22.75;;;;;31.50;38.12;100939.53;5037390;28;45318;-38
2023/09/11 08:08:01;;;;;;;;;14.50;14.00;;;;;32.37;36.95;100939.03;5038203;28;45568;-40
2023/09/11 08:10:27;;;;;;;;;16.40;15.00;;;;;32.78;36.20;100938.69;5038521;28;46212;-39
2023/09/11 08:12:52;;;;;;;;;17.50;17.50;;;;;32.68;36.07;100934.09;5038550;28;45248;-39
2023/09/11 08:15:18;;;;;;;;;12.75;10.75;;;;;32.15;37.39;100933.13;5038279;28;45322;-39
2023/09/11 08:17:43;;;;;;;;;20.00;15.75;;;;;31.55;38.05;100936.75;5039075;28;45323;-40
2023/09/11 08:20:09;;;;;;;;;15.00;13.50;;;;;31.13;38.84;100934.41;5037576;28;45287;-39
2023/09/11 08:22:34;;;;;;;;;20.75;18.00;;;;;30.78;39.58;100941.63;5038340;28;45503;-41
2023/09/11 08:25:00;;;;;;;;;16.75;14.00;;;;;30.50;40.20;100950.41;5038660;28;45323;-39
2023/09/11 08:27:25;;;;;;;;;14.50;14.00;;;;;30.21;40.44;100945.44;5038182;28;45480;-39
2023/09/11 08:29:52;;;;;;;;;19.00;14.75;;;;;29.98;40.53;100940.47;5038471;28;45224;-40
2023/09/11 08:32:18;;;;;;;;;17.20;15.20;;;;;29.80;40.72;100944.53;5038277;28;45401;-41
2023/09/11 08:34:43;;;;;;;;;16.25;13.75;;;;;29.67;41.32;100945.06;5038335;28;45741;-40
2023/09/11 08:37:08;;;;;;;;;15.25;13.50;;;;;29.63;41.30;100941.19;5038501;28;45399;-39
2023/09/11 08:39:34;;;;;;;;;15.50;14.50;;;;;29.80;40.70;100933.56;5038102;28;46052;-40
2023/09/11 08:42:00;;;;;;;;;17.25;13.25;;;;;30.02;40.69;100939.66;5038138;28;45464;-38
2023/09/11 08:44:26;;;;;;;;;17.20;14.00;;;;;29.99;40.75;100944.84;5038246;28;45378;-40
2023/09/11 08:46:58;;;;;;;;;23.75;18.75;;;;;29.79;40.64;100945.63;5038466;28;45411;-39
2023/09/11 08:49:28;;;;;;;;;21.80;20.20;;;;;29.73;41.23;100960.41;5038223;28;45972;-42
2023/09/11 08:51:53;;;;;;;;;17.80;16.40;;;;;29.71;41.20;100957.94;5038092;28;45525;-39
2023/09/11 08:54:24;;;;;;;;;9.00;9.00;;;;;30.06;40.53;100950.91;5038404;28;45330;-40
2023/09/11 08:56:50;;;;;;;;;18.00;14.80;;;;;30.18;40.27;100957.00;5038331;28;45390;-40
2023/09/11 08:59:20;;;;;;;;;13.80;13.40;;;;;30.52;39.89;100962.78;5037113;28;46510;-39
2023/09/11 09:01:48;;;;;;;;;18.60;14.60;;;;;31.08;39.03;100959.16;5038079;28;45486;-40
2023/09/11 09:04:16;;;;;;;;;15.80;13.40;;;;;31.26;38.84;100955.81;5038097;28;45421;-38
2023/09/11 09:06:45;;;;;;;;;19.00;14.80;;;;;31.14;38.98;100962.72;5037968;28;45426;-40
2023/09/11 09:09:11;;;;;;;;;16.00;14.40;;;;;30.98;38.88;100962.78;5037576;28;45511;-39
2023/09/11 09:11:36;;;;;;;;;11.00;11.00;;;;;31.07;39.42;100954.78;5037881;28;45354;-39
2023/09/11 09:14:06;;;;;;;;;16.50;16.00;;;;;31.12;39.38;100957.50;5035473;28;45527;-39
2023/09/11 09:16:31;;;;;;;;;14.80;13.80;;;;;31.33;38.82;100955.56;5036795;28;45510;-39
2023/09/11 09:18:57;;;;;;;;;14.00;12.00;;;;;31.61;38.29;100948.56;5037581;28;46239;-40
2023/09/11 09:21:25;;;;;;;;;15.00;15.00;;;;;32.24;37.50;100950.69;5037706;28;45393;-40
2023/09/11 09:23:52;;;;;;;;;19.80;17.80;;;;;32.86;36.56;100954.56;5037989;28;45296;-39
2023/09/11 09:26:18;;;;;;;;;26.00;26.00;;;;;33.54;35.93;100948.06;5037561;28;45452;-39
2023/09/11 09:28:45;;;;;;;;;12.50;12.25;;;;;34.84;33.90;100946.66;5036869;28;45448;-39
2023/09/11 09:31:12;;;;;;;;;17.80;17.00;;;;;35.04;33.48;100945.47;5037404;28;45396;-40
2023/09/11 09:33:38;;;;;;;;;15.80;13.80;;;;;34.73;33.29;100960.66;5036254;28;45551;-40
2023/09/11 09:36:06;;;;;;;;;17.40;13.60;;;;;34.49;33.65;100993.94;5037721;28;45421;-40
2023/09/11 09:38:32;;;;;;;;;15.20;13.00;;;;;34.32;34.58;101026.78;5037129;28;46373;-40
2023/09/11 09:40:57;;;;;;;;;24.75;21.25;;;;;34.35;33.88;101033.66;5037342;28;45398;-40
2023/09/11 09:43:23;;;;;;;;;23.25;16.75;;;;;33.78;34.61;101036.31;5037232;28;45464;-38
2023/09/11 09:45:49;;;;;;;;;18.25;14.50;;;;;33.12;35.15;101039.78;5037499;28;45362;-39
2023/09/11 09:48:17;;;;;;;;;15.75;12.50;;;;;32.51;36.06;101030.09;5037349;28;46043;-38
2023/09/11 09:51:01;;;;;;;;;14.20;13.00;;;;;32.03;36.63;101032.56;5037162;28;45339;-39
2023/09/11 09:53:33;;;;;;;;;16.00;15.80;;;;;31.55;37.75;101018.44;5037361;28;45445;-40
2023/09/11 09:56:03;;;;;;;;;17.00;15.00;;;;;31.37;38.52;101013.53;5037346;28;45402;-40
2023/09/11 09:58:30;;;;;;;;;15.20;14.60;;;;;31.78;38.11;101016.97;5036565;28;46283;-39
2023/09/11 10:01:10;;;;;;;;;15.40;14.20;;;;;33.91;35.48;101012.69;5036899;28;45227;-39
2023/09/11 10:03:50;;;;;;;;;15.00;14.00;;;;;36.34;32.33;101008.56;5037046;28;45326;-39
2023/09/11 10:06:19;;;;;;;;;14.00;11.40;;;;;38.31;29.44;101016.47;5037254;28;45295;-40
2023/09/11 10:08:45;;;;;;;;;16.80;14.20;;;;;39.98;27.65;101008.06;5036792;28;45326;-40
2023/09/11 10:11:31;;;;;;;;;16.40;13.00;;;;;41.14;26.55;100995.16;5036871;28;45342;-38
2023/09/11 10:13:58;;;;;;;;;12.40;12.40;;;;;41.51;25.07;100990.41;5035764;28;45467;-38
2023/09/11 10:16:27;;;;;;;;;15.80;11.60;;;;;40.76;26.49;101001.81;5037059;28;45406;-38
2023/09/11 10:18:55;;;;;;;;;18.20;16.80;;;;;40.64;26.27;100994.22;5036663;28;46024;-39
2023/09/11 10:21:21;;;;;;;;;15.60;15.60;;;;;40.56;26.16;100983.16;5036666;28;45853;-39
2023/09/11 10:23:47;;;;;;;;;14.20;12.40;;;;;39.91;26.49;100994.69;5036797;28;45404;-37
2023/09/11 10:26:26;;;;;;;;;14.00;14.00;;;;;39.89;26.97;100976.66;5036648;28;45346;-39
2023/09/11 10:28:54;;;;;;;;;16.80;13.20;;;;;40.57;25.64;100987.59;5036084;28;45389;-39
2023/09/11 10:31:21;;;;;;;;;13.80;11.20;;;;;42.17;23.86;100986.44;5036441;28;45456;-39
2023/09/11 10:33:57;;;;;;;;;18.20;14.20;;;;;43.75;23.41;100968.94;5036654;28;45262;-38
2023/09/11 10:36:25;;;;;;;;;13.60;11.60;;;;;44.72;21.58;100964.13;5036739;28;45294;-39
2023/09/11 10:38:56;;;;;;;;;13.40;11.80;;;;;45.42;20.76;100967.69;5036192;28;46142;-38
2023/09/11 10:41:23;;;;;;;;;11.40;9.80;;;;;46.82;20.31;100964.56;5035455;28;45379;-39
2023/09/11 10:43:49;;;;;;;;;12.80;12.00;;;;;47.77;19.35;100974.13;5036079;28;45517;-40
2023/09/11 10:46:22;;;;;;;;;13.20;12.40;;;;;48.92;19.17;100965.56;5036670;28;45366;-40
2023/09/11 10:48:50;;;;;;;;;14.40;12.80;;;;;50.40;16.30;100980.88;5036259;28;46060;-40
2023/09/11 10:51:16;;;;;;;;;11.00;11.00;;;;;51.41;15.87;100984.50;5036341;28;45330;-40
2023/09/11 10:53:42;;;;;;;;;11.50;11.50;;;;;51.61;16.15;100991.19;5036455;28;45941;-38
2023/09/11 10:56:08;;;;;;;;;11.20;9.60;;;;;50.99;16.07;100986.53;5036432;28;45410;-39
2023/09/11 10:58:34;;;;;;;;;12.00;10.00;;;;;51.11;16.80;101000.16;5035988;28;46102;-39
2023/09/11 11:01:03;;;;;;;;;10.00;10.00;;;;;50.83;16.84;100994.75;5036170;28;45267;-38
2023/09/11 11:03:30;;;;;;;;;11.00;9.80;;;;;50.86;16.63;100997.56;5036173;28;45335;-39
2023/09/11 11:05:58;;;;;;;;;10.60;9.20;;;;;50.11;16.80;100997.22;5036267;28;45511;-40
2023/09/11 11:08:24;;;;;;;;;8.40;8.40;;;;;48.84;17.60;100999.84;5035809;28;45451;-40